sensor_id;sensor_type;location;lat;lon;timestamp;pressure;altitude;pressure_sealevel;temperature;humidity
47054;BME280;32811;52.382;5.270;2024-02-16T00:02:02;100981.75;;;9.52;100.00
47054;BME280;32811;52.382;5.270;2024-02-16T00:04:28;100979.09;;;9.44;100.00
47054;BME280;32811;52.382;5.270;2024-02-16T00:06:55;101004.03;;;9.48;100.00
47054;BME280;32811;52.382;5.270;2024-02-16T00:09:22;100998.91;;;9.48;100.00
47054;BME280;32811;52.382;5.270;2024-02-16T00:11:49;100992.03;;;9.50;100.00
47054;BME280;32811;52.382;5.270;2024-02-16T00:14:19;100978.22;;;9.44;100.00
47054;BME280;32811;52.382;5.270;2024-02-16T00:16:47;100978.19;;;9.39;100.00
47054;BME280;32811;52.382;5.270;2024-02-16T00:19:14;100970.41;;;9.38;100.00
47054;BME280;32811;52.382;5.270;2024-02-16T00:21:41;100971.31;;;9.40;100.00
47054;BME280;32811;52.382;5.270;2024-02-16T00:24:09;100989.53;;;9.53;100.00
47054;BME280;32811;52.382;5.270;2024-02-16T00:26:37;100971.31;;;9.40;100.00
47054;BME280;32811;52.382;5.270;2024-02-16T00:29:06;100994.50;;;9.40;100.00
47054;BME280;32811;52.382;5.270;2024-02-16T00:31:32;100994.50;;;9.40;100.00
47054;BME280;32811;52.382;5.270;2024-02-16T00:33:59;100961.59;;;9.17;100.00
47054;BME280;32811;52.382;5.270;2024-02-16T00:36:29;100981.47;;;9.27;100.00
47054;BME280;32811;52.382;5.270;2024-02-16T00:38:57;100966.81;;;9.20;100.00
47054;BME280;32811;52.382;5.270;2024-02-16T00:41:24;100982.31;;;9.26;100.00
47054;BME280;32811;52.382;5.270;2024-02-16T00:43:50;100990.00;;;9.23;100.00
47054;BME280;32811;52.382;5.270;2024-02-16T00:46:18;100983.16;;;9.24;100.00
47054;BME280;32811;52.382;5.270;2024-02-16T00:48:45;100984.84;;;9.22;100.00
47054;BME280;32811;52.382;5.270;2024-02-16T00:51:13;100975.28;;;9.13;100.00
47054;BME280;32811;52.382;5.270;2024-02-16T00:53:42;100974.41;;;9.09;100.00
47054;BME280;32811;52.382;5.270;2024-02-16T00:56:09;100956.25;;;9.02;100.00
47054;BME280;32811;52.382;5.270;2024-02-16T00:58:36;100970.09;;;9.10;100.00
47054;BME280;32811;52.382;5.270;2024-02-16T01:01:04;100941.66;;;8.98;100.00
47054;BME280;32811;52.382;5.270;2024-02-16T01:03:31;100958.91;;;9.06;100.00
47054;BME280;32811;52.382;5.270;2024-02-16T01:05:57;100970.16;;;9.14;100.00
47054;BME280;32811;52.382;5.270;2024-02-16T01:08:24;100931.28;;;8.94;100.00
47054;BME280;32811;52.382;5.270;2024-02-16T01:10:51;100945.97;;;9.00;100.00
47054;BME280;32811;52.382;5.270;2024-02-16T01:13:23;100942.47;;;8.97;100.00
47054;BME280;32811;52.382;5.270;2024-02-16T01:15:50;100956.22;;;8.97;100.00
47054;BME280;32811;52.382;5.270;2024-02-16T01:18:16;100956.22;;;8.97;100.00
47054;BME280;32811;52.382;5.270;2024-02-16T01:20:43;100957.88;;;8.92;100.00
47054;BME280;32811;52.382;5.270;2024-02-16T01:23:10;100907.69;;;8.61;100.00
47054;BME280;32811;52.382;5.270;2024-02-16T01:25:39;100954.38;;;8.88;100.00
47054;BME280;32811;52.382;5.270;2024-02-16T01:28:06;100952.66;;;8.87;100.00
47054;BME280;32811;52.382;5.270;2024-02-16T01:30:32;100956.16;;;8.92;100.00
47054;BME280;32811;52.382;5.270;2024-02-16T01:32:59;100929.38;;;8.78;100.00
47054;BME280;32811;52.382;5.270;2024-02-16T01:35:26;100925.94;;;8.78;100.00
47054;BME280;32811;52.382;5.270;2024-02-16T01:37:52;100937.94;;;8.77;100.00
47054;BME280;32811;52.382;5.270;2024-02-16T01:40:19;100950.19;;;8.93;100.00
47054;BME280;32811;52.382;5.270;2024-02-16T01:42:49;100926.81;;;8.78;100.00
47054;BME280;32811;52.382;5.270;2024-02-16T01:45:15;100928.53;;;8.79;100.00
47054;BME280;32811;52.382;5.270;2024-02-16T01:47:43;100908.66;;;8.67;100.00
47054;BME280;32811;52.382;5.270;2024-02-16T01:50:10;100935.50;;;8.86;100.00
47054;BME280;32811;52.382;5.270;2024-02-16T01:52:37;100944.09;;;8.88;100.00
47054;BME280;32811;52.382;5.270;2024-02-16T01:55:05;100954.34;;;8.85;100.00
47054;BME280;32811;52.382;5.270;2024-02-16T01:57:45;100965.50;;;8.86;100.00
47054;BME280;32811;52.382;5.270;2024-02-16T02:00:13;100932.72;;;8.71;100.00
47054;BME280;32811;52.382;5.270;2024-02-16T02:02:44;100931.94;;;8.78;100.00
47054;BME280;32811;52.382;5.270;2024-02-16T02:05:12;100931.03;;;8.75;100.00
47054;BME280;32811;52.382;5.270;2024-02-16T02:07:39;100925.94;;;8.78;100.00
47054;BME280;32811;52.382;5.270;2024-02-16T02:10:06;100924.28;;;8.83;100.00
47054;BME280;32811;52.382;5.270;2024-02-16T02:12:33;100920.81;;;8.78;100.00
47054;BME280;32811;52.382;5.270;2024-02-16T02:15:00;100938.09;;;8.89;100.00
47054;BME280;32811;52.382;5.270;2024-02-16T02:17:27;100869.19;;;8.67;100.00
47054;BME280;32811;52.382;5.270;2024-02-16T02:19:54;100893.44;;;8.86;100.00
47054;BME280;32811;52.382;5.270;2024-02-16T02:22:20;100902.13;;;8.94;100.00
47054;BME280;32811;52.382;5.270;2024-02-16T02:24:48;100926.19;;;8.96;100.00
47054;BME280;32811;52.382;5.270;2024-02-16T02:27:15;100933.03;;;8.96;100.00
47054;BME280;32811;52.382;5.270;2024-02-16T02:29:43;100934.69;;;8.92;100.00
47054;BME280;32811;52.382;5.270;2024-02-16T02:32:10;100936.41;;;8.91;100.00
47054;BME280;32811;52.382;5.270;2024-02-16T02:34:39;100902.72;;;8.73;100.00
47054;BME280;32811;52.382;5.270;2024-02-16T02:37:06;100846.56;;;8.41;100.00
47054;BME280;32811;52.382;5.270;2024-02-16T02:39:35;100892.41;;;8.71;100.00
47054;BME280;32811;52.382;5.270;2024-02-16T02:42:02;100880.31;;;8.66;100.00
47054;BME280;32811;52.382;5.270;2024-02-16T02:44:29;100888.13;;;8.72;100.00
47054;BME280;32811;52.382;5.270;2024-02-16T02:46:58;100894.16;;;8.74;100.00
47054;BME280;32811;52.382;5.270;2024-02-16T02:49:27;100860.38;;;8.49;100.00
47054;BME280;32811;52.382;5.270;2024-02-16T02:51:54;100881.97;;;8.61;100.00
47054;BME280;32811;52.382;5.270;2024-02-16T02:54:21;100859.47;;;8.44;100.00
47054;BME280;32811;52.382;5.270;2024-02-16T02:56:47;100887.97;;;8.61;100.00
47054;BME280;32811;52.382;5.270;2024-02-16T02:59:14;100895.78;;;8.67;100.00
47054;BME280;32811;52.382;5.270;2024-02-16T03:01:40;100895.72;;;8.63;100.00
47054;BME280;32811;52.382;5.270;2024-02-16T03:04:07;100901.69;;;8.60;100.00
47054;BME280;32811;52.382;5.270;2024-02-16T03:06:36;100878.31;;;8.43;100.00
47054;BME280;32811;52.382;5.270;2024-02-16T03:09:03;100890.28;;;8.41;100.00
47054;BME280;32811;52.382;5.270;2024-02-16T03:11:29;100896.41;;;8.49;100.00
47054;BME280;32811;52.382;5.270;2024-02-16T03:13:56;100904.16;;;8.52;100.00
47054;BME280;32811;52.382;5.270;2024-02-16T03:16:22;100879.91;;;8.38;100.00
47054;BME280;32811;52.382;5.270;2024-02-16T03:18:49;100899.13;;;8.60;100.00
47054;BME280;32811;52.382;5.270;2024-02-16T03:21:16;100899.97;;;8.61;100.00
47054;BME280;32811;52.382;5.270;2024-02-16T03:23:43;100874.97;;;8.50;100.00
47054;BME280;32811;52.382;5.270;2024-02-16T03:26:17;100890.59;;;8.66;100.00
47054;BME280;32811;52.382;5.270;2024-02-16T03:28:47;100900.06;;;8.67;100.00
47054;BME280;32811;52.382;5.270;2024-02-16T03:31:22;100885.44;;;8.63;100.00
47054;BME280;32811;52.382;5.270;2024-02-16T03:33:50;100895.81;;;8.70;100.00
47054;BME280;32811;52.382;5.270;2024-02-16T03:36:18;100879.38;;;8.59;100.00
47054;BME280;32811;52.382;5.270;2024-02-16T03:38:47;100877.66;;;8.58;100.00
47054;BME280;32811;52.382;5.270;2024-02-16T03:41:20;100895.81;;;8.69;100.00
47054;BME280;32811;52.382;5.270;2024-02-16T03:43:47;100881.94;;;8.59;100.00
47054;BME280;32811;52.382;5.270;2024-02-16T03:46:14;100892.34;;;8.67;100.00
47054;BME280;32811;52.382;5.270;2024-02-16T03:48:41;100885.47;;;8.66;100.00
47054;BME280;32811;52.382;5.270;2024-02-16T03:51:08;100780.84;;;8.01;100.00
47054;BME280;32811;52.382;5.270;2024-02-16T03:53:35;100877.69;;;8.61;100.00
47054;BME280;32811;52.382;5.270;2024-02-16T03:56:02;100883.78;;;8.66;100.00
47054;BME280;32811;52.382;5.270;2024-02-16T03:58:28;100861.28;;;8.51;100.00
47054;BME280;32811;52.382;5.270;2024-02-16T04:00:58;100880.28;;;8.63;100.00
47054;BME280;32811;52.382;5.270;2024-02-16T04:03:27;100885.47;;;8.66;100.00
47054;BME280;32811;52.382;5.270;2024-02-16T04:05:54;100884.63;;;8.67;100.00
47054;BME280;32811;52.382;5.270;2024-02-16T04:08:26;100874.22;;;8.58;100.00
47054;BME280;32811;52.382;5.270;2024-02-16T04:10:52;100885.50;;;8.67;100.00
47054;BME280;32811;52.382;5.270;2024-02-16T04:13:19;100875.16;;;8.66;100.00
47054;BME280;32811;52.382;5.270;2024-02-16T04:15:45;100882.81;;;8.61;100.00
47054;BME280;32811;52.382;5.270;2024-02-16T04:18:13;100885.44;;;8.63;100.00
47054;BME280;32811;52.382;5.270;2024-02-16T04:20:40;100890.63;;;8.67;100.00
47054;BME280;32811;52.382;5.270;2024-02-16T04:23:07;100881.13;;;8.60;100.00
47054;BME280;32811;52.382;5.270;2024-02-16T04:25:34;100821.47;;;8.26;100.00
47054;BME280;32811;52.382;5.270;2024-02-16T04:28:01;100860.44;;;8.54;100.00
47054;BME280;32811;52.382;5.270;2024-02-16T04:30:27;100882.09;;;8.70;100.00
47054;BME280;32811;52.382;5.270;2024-02-16T04:32:54;100847.59;;;8.57;100.00
47054;BME280;32811;52.382;5.270;2024-02-16T04:35:21;100879.59;;;8.76;100.00
47054;BME280;32811;52.382;5.270;2024-02-16T04:37:48;100856.28;;;8.64;100.00
47054;BME280;32811;52.382;5.270;2024-02-16T04:40:15;100862.34;;;8.69;100.00
47054;BME280;32811;52.382;5.270;2024-02-16T04:42:42;100864.06;;;8.70;100.00
47054;BME280;32811;52.382;5.270;2024-02-16T04:45:12;100872.75;;;8.78;100.00
47054;BME280;32811;52.382;5.270;2024-02-16T04:47:41;100875.28;;;8.75;100.00
47054;BME280;32811;52.382;5.270;2024-02-16T04:50:08;100881.25;;;8.71;100.00
47054;BME280;32811;52.382;5.270;2024-02-16T04:52:38;100892.44;;;8.73;100.00
47054;BME280;32811;52.382;5.270;2024-02-16T04:55:10;100857.88;;;8.54;100.00
47054;BME280;32811;52.382;5.270;2024-02-16T04:57:36;100888.97;;;8.72;100.00
47054;BME280;32811;52.382;5.270;2024-02-16T05:00:03;100853.53;;;8.50;100.00
47054;BME280;32811;52.382;5.270;2024-02-16T05:02:31;100885.53;;;8.72;100.00
47054;BME280;32811;52.382;5.270;2024-02-16T05:04:58;100870.91;;;8.66;100.00
47054;BME280;32811;52.382;5.270;2024-02-16T05:07:29;100832.03;;;8.45;100.00
47054;BME280;32811;52.382;5.270;2024-02-16T05:09:57;100838.03;;;8.45;100.00
47054;BME280;32811;52.382;5.270;2024-02-16T05:12:25;100867.50;;;8.69;100.00
47054;BME280;32811;52.382;5.270;2024-02-16T05:14:53;100839.78;;;8.48;100.00
47054;BME280;32811;52.382;5.270;2024-02-16T05:17:20;100850.19;;;8.57;100.00
47054;BME280;32811;52.382;5.270;2024-02-16T05:19:48;100853.59;;;8.55;100.00
47054;BME280;32811;52.382;5.270;2024-02-16T05:22:15;100869.09;;;8.61;100.00
47054;BME280;32811;52.382;5.270;2024-02-16T05:24:44;100830.19;;;8.38;100.00
47054;BME280;32811;52.382;5.270;2024-02-16T05:27:11;100854.34;;;8.47;100.00
47054;BME280;32811;52.382;5.270;2024-02-16T05:29:38;100851.75;;;8.44;100.00
47054;BME280;32811;52.382;5.270;2024-02-16T05:32:05;100867.28;;;8.52;100.00
47054;BME280;32811;52.382;5.270;2024-02-16T05:34:32;100849.13;;;8.41;100.00
47054;BME280;32811;52.382;5.270;2024-02-16T05:37:05;100841.31;;;8.37;100.00
47054;BME280;32811;52.382;5.270;2024-02-16T05:39:36;100860.41;;;8.52;100.00
47054;BME280;32811;52.382;5.270;2024-02-16T05:42:10;100830.16;;;8.36;100.00
47054;BME280;32811;52.382;5.270;2024-02-16T05:44:39;100826.63;;;8.28;100.00
47054;BME280;32811;52.382;5.270;2024-02-16T05:47:05;100845.81;;;8.48;100.00
47054;BME280;32811;52.382;5.270;2024-02-16T05:49:34;100861.25;;;8.50;100.00
47054;BME280;32811;52.382;5.270;2024-02-16T05:52:01;100849.16;;;8.43;100.00
47054;BME280;32811;52.382;5.270;2024-02-16T05:54:47;100832.66;;;8.28;100.00
47054;BME280;32811;52.382;5.270;2024-02-16T05:57:16;100846.50;;;8.38;100.00
47054;BME280;32811;52.382;5.270;2024-02-16T05:59:43;100863.78;;;8.47;100.00
47054;BME280;32811;52.382;5.270;2024-02-16T06:02:10;100844.78;;;8.39;100.00
47054;BME280;32811;52.382;5.270;2024-02-16T06:04:39;100874.13;;;8.51;100.00
47054;BME280;32811;52.382;5.270;2024-02-16T06:07:06;100871.56;;;8.51;100.00
47054;BME280;32811;52.382;5.270;2024-02-16T06:09:34;100856.00;;;8.42;100.00
47054;BME280;32811;52.382;5.270;2024-02-16T06:12:03;100870.78;;;8.59;100.00
47054;BME280;32811;52.382;5.270;2024-02-16T06:14:31;100881.19;;;8.66;100.00
47054;BME280;32811;52.382;5.270;2024-02-16T06:16:58;100892.38;;;8.70;100.00
47054;BME280;32811;52.382;5.270;2024-02-16T06:19:25;100897.56;;;8.71;100.00
47054;BME280;32811;52.382;5.270;2024-02-16T06:21:53;100896.75;;;8.76;100.00
47054;BME280;32811;52.382;5.270;2024-02-16T06:24:23;100888.19;;;8.77;100.00
47054;BME280;32811;52.382;5.270;2024-02-16T06:26:51;100895.94;;;8.78;100.00
47054;BME280;32811;52.382;5.270;2024-02-16T06:29:22;100906.31;;;8.84;100.00
47054;BME280;32811;52.382;5.270;2024-02-16T06:31:49;100908.13;;;8.94;100.00
47054;BME280;32811;52.382;5.270;2024-02-16T06:34:16;100887.44;;;8.88;100.00
47054;BME280;32811;52.382;5.270;2024-02-16T06:36:43;100873.66;;;8.83;100.00
47054;BME280;32811;52.382;5.270;2024-02-16T06:39:10;100885.81;;;8.93;100.00
47054;BME280;32811;52.382;5.270;2024-02-16T06:41:37;100899.59;;;8.99;100.00
47054;BME280;32811;52.382;5.270;2024-02-16T06:44:04;100916.91;;;9.09;100.00
47054;BME280;32811;52.382;5.270;2024-02-16T06:46:31;100880.63;;;8.90;100.00
47054;BME280;32811;52.382;5.270;2024-02-16T06:48:58;100908.34;;;9.13;100.00
47054;BME280;32811;52.382;5.270;2024-02-16T06:51:25;100908.38;;;9.16;100.00
47054;BME280;32811;52.382;5.270;2024-02-16T06:53:53;100919.63;;;9.23;100.00
47054;BME280;32811;52.382;5.270;2024-02-16T06:56:19;100908.34;;;9.13;100.00
47054;BME280;32811;52.382;5.270;2024-02-16T06:58:47;100909.22;;;9.15;100.00
47054;BME280;32811;52.382;5.270;2024-02-16T07:01:14;100905.81;;;9.16;100.00
47054;BME280;32811;52.382;5.270;2024-02-16T07:03:41;100932.56;;;9.30;100.00
47054;BME280;32811;52.382;5.270;2024-02-16T07:06:08;100915.38;;;9.28;100.00
47054;BME280;32811;52.382;5.270;2024-02-16T07:08:36;100926.63;;;9.36;100.00
47054;BME280;32811;52.382;5.270;2024-02-16T07:11:04;100931.75;;;9.34;100.00
47054;BME280;32811;52.382;5.270;2024-02-16T07:13:33;100916.22;;;9.28;100.00
47054;BME280;32811;52.382;5.270;2024-02-16T07:16:00;100927.56;;;9.43;100.00
47054;BME280;32811;52.382;5.270;2024-02-16T07:18:26;100937.03;;;9.45;100.00
47054;BME280;32811;52.382;5.270;2024-02-16T07:20:53;100932.72;;;9.44;100.00
47054;BME280;32811;52.382;5.270;2024-02-16T07:23:20;100935.44;;;9.56;100.00
47054;BME280;32811;52.382;5.270;2024-02-16T07:25:47;100944.97;;;9.65;100.00
47054;BME280;32811;52.382;5.270;2024-02-16T07:28:15;100934.66;;;9.65;100.00
47054;BME280;32811;52.382;5.270;2024-02-16T07:30:42;100939.84;;;9.67;100.00
47054;BME280;32811;52.382;5.270;2024-02-16T07:33:09;100938.13;;;9.67;100.00
47054;BME280;32811;52.382;5.270;2024-02-16T07:35:36;100936.41;;;9.68;100.00
47054;BME280;32811;52.382;5.270;2024-02-16T07:38:05;100938.97;;;9.68;100.00
47054;BME280;32811;52.382;5.270;2024-02-16T07:40:31;100952.78;;;9.74;100.00
47054;BME280;32811;52.382;5.270;2024-02-16T07:42:58;100942.50;;;9.77;100.00
47054;BME280;32811;52.382;5.270;2024-02-16T07:45:25;100947.75;;;9.87;100.00
47054;BME280;32811;52.382;5.270;2024-02-16T07:47:52;100953.75;;;9.89;100.00
47054;BME280;32811;52.382;5.270;2024-02-16T07:50:20;100961.53;;;9.93;100.00
47054;BME280;32811;52.382;5.270;2024-02-16T07:52:47;100955.56;;;9.97;100.00
47054;BME280;32811;52.382;5.270;2024-02-16T07:55:14;100958.25;;;10.08;100.00
47054;BME280;32811;52.382;5.270;2024-02-16T07:57:41;100968.59;;;10.10;100.00
47054;BME280;32811;52.382;5.270;2024-02-16T08:00:08;100978.09;;;10.20;100.00
47054;BME280;32811;52.382;5.270;2024-02-16T08:02:37;100976.44;;;10.27;100.00
47054;BME280;32811;52.382;5.270;2024-02-16T08:05:05;100984.19;;;10.28;100.00
47054;BME280;32811;52.382;5.270;2024-02-16T08:07:34;100988.50;;;10.28;100.00
47054;BME280;32811;52.382;5.270;2024-02-16T08:10:01;100992.88;;;10.32;100.00
47054;BME280;32811;52.382;5.270;2024-02-16T08:12:29;100997.06;;;10.27;100.00
47054;BME280;32811;52.382;5.270;2024-02-16T08:14:57;100996.28;;;10.31;100.00
47054;BME280;32811;52.382;5.270;2024-02-16T08:17:27;100989.34;;;10.28;100.00
47054;BME280;32811;52.382;5.270;2024-02-16T08:19:54;100993.72;;;10.32;100.00
47054;BME280;32811;52.382;5.270;2024-02-16T08:22:21;101001.53;;;10.42;100.00
47054;BME280;32811;52.382;5.270;2024-02-16T08:24:48;101007.59;;;10.45;100.00
47054;BME280;32811;52.382;5.270;2024-02-16T08:27:16;100996.41;;;10.46;100.00
47054;BME280;32811;52.382;5.270;2024-02-16T08:29:43;101014.53;;;10.52;100.00
47054;BME280;32811;52.382;5.270;2024-02-16T08:32:10;101019.69;;;10.55;100.00
47054;BME280;32811;52.382;5.270;2024-02-16T08:34:37;101019.75;;;10.62;100.00
47054;BME280;32811;52.382;5.270;2024-02-16T08:37:05;101023.22;;;10.65;100.00
47054;BME280;32811;52.382;5.270;2024-02-16T08:39:33;101024.97;;;10.68;100.00
47054;BME280;32811;52.382;5.270;2024-02-16T08:42:01;101024.13;;;10.70;100.00
47054;BME280;32811;52.382;5.270;2024-02-16T08:44:28;101022.47;;;10.78;100.00
47054;BME280;32811;52.382;5.270;2024-02-16T08:46:55;101025.03;;;10.78;100.00
47054;BME280;32811;52.382;5.270;2024-02-16T08:49:21;101020.72;;;10.80;100.00
47054;BME280;32811;52.382;5.270;2024-02-16T08:51:48;101038.00;;;10.91;100.00
47054;BME280;32811;52.382;5.270;2024-02-16T08:54:15;101025.97;;;10.90;100.00
47054;BME280;32811;52.382;5.270;2024-02-16T08:56:45;101035.44;;;10.92;100.00
47054;BME280;32811;52.382;5.270;2024-02-16T08:59:11;101036.28;;;10.91;100.00
47054;BME280;32811;52.382;5.270;2024-02-16T09:01:38;101040.59;;;10.94;100.00
47054;BME280;32811;52.382;5.270;2024-02-16T09:04:09;101046.69;;;10.99;100.00
47054;BME280;32811;52.382;5.270;2024-02-16T09:06:36;101054.41;;;10.94;100.00
47054;BME280;32811;52.382;5.270;2024-02-16T09:09:05;101052.69;;;10.99;100.00
47054;BME280;32811;52.382;5.270;2024-02-16T09:11:34;101052.69;;;10.98;100.00
47054;BME280;32811;52.382;5.270;2024-02-16T09:14:00;101061.31;;;11.01;100.00
47054;BME280;32811;52.382;5.270;2024-02-16T09:16:27;101059.56;;;10.97;100.00
47054;BME280;32811;52.382;5.270;2024-02-16T09:18:53;101063.03;;;10.99;100.00
47054;BME280;32811;52.382;5.270;2024-02-16T09:21:20;101060.47;;;11.04;100.00
47054;BME280;32811;52.382;5.270;2024-02-16T09:23:49;101069.16;;;11.17;100.00
47054;BME280;32811;52.382;5.270;2024-02-16T09:26:16;101069.16;;;11.15;100.00
47054;BME280;32811;52.382;5.270;2024-02-16T09:28:42;101070.84;;;11.10;100.00
47054;BME280;32811;52.382;5.270;2024-02-16T09:31:13;101094.16;;;11.16;100.00
47054;BME280;32811;52.382;5.270;2024-02-16T09:33:40;101086.44;;;11.26;100.00
47054;BME280;32811;52.382;5.270;2024-02-16T09:36:07;101093.31;;;11.27;100.00
47054;BME280;32811;52.382;5.270;2024-02-16T09:38:34;101088.97;;;11.16;100.00
47054;BME280;32811;52.382;5.270;2024-02-16T09:41:00;101103.66;;;11.24;100.00
47054;BME280;32811;52.382;5.270;2024-02-16T09:43:31;101117.44;;;11.24;100.00
47054;BME280;32811;52.382;5.270;2024-02-16T09:45:58;101107.09;;;11.24;100.00
47054;BME280;32811;52.382;5.270;2024-02-16T09:48:28;101113.16;;;11.29;100.00
47054;BME280;32811;52.382;5.270;2024-02-16T09:50:56;101107.97;;;11.25;100.00
47054;BME280;32811;52.382;5.270;2024-02-16T09:53:27;101130.41;;;11.33;100.00
47054;BME280;32811;52.382;5.270;2024-02-16T09:55:54;101123.53;;;11.32;100.00
47054;BME280;32811;52.382;5.270;2024-02-16T09:58:21;101137.28;;;11.31;100.00
47054;BME280;32811;52.382;5.270;2024-02-16T10:00:52;101121.69;;;11.16;100.00
47054;BME280;32811;52.382;5.270;2024-02-16T10:03:29;101146.75;;;11.29;100.00
47054;BME280;32811;52.382;5.270;2024-02-16T10:06:07;101150.19;;;11.28;100.00
47054;BME280;32811;52.382;5.270;2024-02-16T10:08:46;101161.34;;;11.24;100.00
47054;BME280;32811;52.382;5.270;2024-02-16T10:11:14;101176.00;;;11.24;100.00
47054;BME280;32811;52.382;5.270;2024-02-16T10:13:41;101172.50;;;11.17;100.00
47054;BME280;32811;52.382;5.270;2024-02-16T10:16:09;101188.88;;;11.14;100.00
47054;BME280;32811;52.382;5.270;2024-02-16T10:18:36;101194.03;;;11.14;100.00
47054;BME280;32811;52.382;5.270;2024-02-16T10:21:04;101200.06;;;11.16;100.00
47054;BME280;32811;52.382;5.270;2024-02-16T10:23:31;101208.69;;;11.17;100.00
47054;BME280;32811;52.382;5.270;2024-02-16T10:26:01;101210.38;;;11.13;100.00
47054;BME280;32811;52.382;5.270;2024-02-16T10:28:29;101214.63;;;11.07;100.00
47054;BME280;32811;52.382;5.270;2024-02-16T10:30:58;101228.38;;;11.04;100.00
47054;BME280;32811;52.382;5.270;2024-02-16T10:33:28;101242.94;;;10.97;100.00
47054;BME280;32811;52.382;5.270;2024-02-16T10:35:59;101243.72;;;10.89;100.00
47054;BME280;32811;52.382;5.270;2024-02-16T10:38:27;101244.53;;;10.82;100.00
47054;BME280;32811;52.382;5.270;2024-02-16T10:40:56;101253.13;;;10.82;100.00
47054;BME280;32811;52.382;5.270;2024-02-16T10:43:23;101259.13;;;10.78;100.00
47054;BME280;32811;52.382;5.270;2024-02-16T10:45:51;101269.44;;;10.78;100.00
47054;BME280;32811;52.382;5.270;2024-02-16T10:48:19;101283.13;;;10.71;100.00
47054;BME280;32811;52.382;5.270;2024-02-16T10:50:46;101297.75;;;10.69;100.00
47054;BME280;32811;52.382;5.270;2024-02-16T10:53:27;101298.50;;;10.58;100.00
47054;BME280;32811;52.382;5.270;2024-02-16T10:56:00;101310.56;;;10.59;100.00
47054;BME280;32811;52.382;5.270;2024-02-16T10:58:28;101307.09;;;10.57;100.00
47054;BME280;32811;52.382;5.270;2024-02-16T11:00:56;101302.72;;;10.52;100.00
47054;BME280;32811;52.382;5.270;2024-02-16T11:03:25;101300.94;;;10.46;100.00
47054;BME280;32811;52.382;5.270;2024-02-16T11:05:53;101307.88;;;10.50;100.00
47054;BME280;32811;52.382;5.270;2024-02-16T11:08:23;101307.00;;;10.51;100.00
47054;BME280;32811;52.382;5.270;2024-02-16T11:10:57;101301.91;;;10.57;100.00
47054;BME280;32811;52.382;5.270;2024-02-16T11:13:25;101308.03;;;10.64;100.00
47054;BME280;32811;52.382;5.270;2024-02-16T11:16:08;101313.22;;;10.66;100.00
47054;BME280;32811;52.382;5.270;2024-02-16T11:18:39;101315.72;;;10.59;100.00
47054;BME280;32811;52.382;5.270;2024-02-16T11:21:11;101315.66;;;10.55;100.00
47054;BME280;32811;52.382;5.270;2024-02-16T11:23:39;101339.81;;;10.58;100.00
47054;BME280;32811;52.382;5.270;2024-02-16T11:26:11;101343.22;;;10.57;100.00
47054;BME280;32811;52.382;5.270;2024-02-16T11:28:40;101340.59;;;10.56;100.00
47054;BME280;32811;52.382;5.270;2024-02-16T11:31:07;101344.03;;;10.53;100.00
47054;BME280;32811;52.382;5.270;2024-02-16T11:33:34;101347.50;;;10.54;100.00
47054;BME280;32811;52.382;5.270;2024-02-16T11:36:03;101334.59;;;10.54;100.00
47054;BME280;32811;52.382;5.270;2024-02-16T11:38:35;101326.03;;;10.59;100.00
47054;BME280;32811;52.382;5.270;2024-02-16T11:41:06;101345.03;;;10.63;100.00
47054;BME280;32811;52.382;5.270;2024-02-16T11:43:34;101360.50;;;10.65;100.00
47054;BME280;32811;52.382;5.270;2024-02-16T11:46:11;101362.19;;;10.59;100.00
47054;BME280;32811;52.382;5.270;2024-02-16T11:48:39;101372.53;;;10.63;100.00
47054;BME280;32811;52.382;5.270;2024-02-16T11:51:05;101382.84;;;10.63;100.00
47054;BME280;32811;52.382;5.270;2024-02-16T11:53:32;101394.88;;;10.59;100.00
47054;BME280;32811;52.382;5.270;2024-02-16T11:56:00;101396.59;;;10.60;100.00
47054;BME280;32811;52.382;5.270;2024-02-16T11:58:27;101400.84;;;10.55;100.00
47054;BME280;32811;52.382;5.270;2024-02-16T12:00:56;101414.59;;;10.54;100.00
47054;BME280;32811;52.382;5.270;2024-02-16T12:03:29;101406.81;;;10.51;100.00
47054;BME280;32811;52.382;5.270;2024-02-16T12:05:58;101411.97;;;10.51;100.00
47054;BME280;32811;52.382;5.270;2024-02-16T12:08:32;101425.78;;;10.54;100.00
47054;BME280;32811;52.382;5.270;2024-02-16T12:11:00;101430.13;;;10.57;100.00
47054;BME280;32811;52.382;5.270;2024-02-16T12:13:27;101416.25;;;10.50;100.00
47054;BME280;32811;52.382;5.270;2024-02-16T12:15:54;101436.94;;;10.53;100.00
47054;BME280;32811;52.382;5.270;2024-02-16T12:18:26;101448.97;;;10.51;100.00
47054;BME280;32811;52.382;5.270;2024-02-16T12:21:03;101452.34;;;10.46;100.00
47054;BME280;32811;52.382;5.270;2024-02-16T12:23:32;101453.22;;;10.48;100.00
47054;BME280;32811;52.382;5.270;2024-02-16T12:25:59;101449.78;;;10.47;100.00
47054;BME280;32811;52.382;5.270;2024-02-16T12:28:28;101453.41;;;10.62;100.00
47054;BME280;32811;52.382;5.270;2024-02-16T12:30:55;101447.50;;;10.70;100.00
47054;BME280;32811;52.382;5.270;2024-02-16T12:33:25;101448.50;;;10.78;100.00
47054;BME280;32811;52.382;5.270;2024-02-16T12:35:53;101451.19;;;10.89;100.00
47054;BME280;32811;52.382;5.270;2024-02-16T12:38:20;101463.38;;;10.96;100.00
47054;BME280;32811;52.382;5.270;2024-02-16T12:40:47;101462.53;;;10.99;100.00
47054;BME280;32811;52.382;5.270;2024-02-16T12:43:14;101472.03;;;11.01;100.00
47054;BME280;32811;52.382;5.270;2024-02-16T12:45:41;101476.31;;;10.99;100.00
47054;BME280;32811;52.382;5.270;2024-02-16T12:48:08;101475.50;;;11.04;100.00
47054;BME280;32811;52.382;5.270;2024-02-16T12:50:41;101477.34;;;11.12;100.00